Time;durP1;ratioP1;P1;durP2;ratioP2;P2;SDS_P1;SDS_P2;PMS_P1;PMS_P2;Temp;Humidity;BMP_temperature;BMP_pressure;BME280_temperature;BME280_humidity;BME280_pressure;Samples;Min_cycle;Max_cycle;Signal;HPM_P1;HPM_P2
2022/10/02 00:00:18;;;;;;;18.30;10.48;;;10.30;99.90;;;;;;4979659;28;20374;-50
2022/10/02 00:03:21;;;;;;;26.10;15.98;;;10.20;99.90;;;;;;4969967;28;20029;-51
2022/10/02 00:05:51;;;;;;;12.73;5.55;;;10.20;99.90;;;;;;4980040;28;20383;-50
2022/10/02 00:08:16;;;;;;;28.75;15.50;;;10.20;99.90;;;;;;4969807;28;20031;-49
2022/10/02 00:10:53;;;;;;;20.05;8.52;;;10.20;99.90;;;;;;4983887;28;20392;-51
2022/10/02 00:13:26;;;;;;;34.50;14.52;;;10.20;99.90;;;;;;4969592;28;20445;-49
2022/10/02 00:15:53;;;;;;;15.77;5.45;;;10.20;99.90;;;;;;4974960;28;20036;-52
2022/10/02 00:18:38;;;;;;;119.65;53.65;;;10.30;99.90;;;;;;4976564;28;20413;-50
2022/10/02 00:21:31;;;;;;;20.55;9.40;;;10.30;99.90;;;;;;4972761;28;20019;-49
2022/10/02 00:24:03;;;;;;;21.63;8.20;;;10.30;99.90;;;;;;4970674;28;20392;-49
2022/10/02 00:26:51;;;;;;;30.27;13.35;;;10.30;99.90;;;;;;4981721;28;20086;-51
2022/10/02 00:29:46;;;;;;;42.58;16.88;;;10.30;99.90;;;;;;4977651;28;20057;-51
2022/10/02 00:32:33;;;;;;;14.45;6.07;;;10.30;99.90;;;;;;4974789;28;20697;-49
2022/10/02 00:35:27;;;;;;;13.93;4.55;;;10.30;99.90;;;;;;4977319;28;20026;-52
2022/10/02 00:38:19;;;;;;;7.63;3.40;;;10.30;99.90;;;;;;4976355;28;20389;-50
2022/10/02 00:41:12;;;;;;;10.15;3.13;;;10.40;99.90;;;;;;4978609;28;20019;-50
2022/10/02 00:43:47;;;;;;;15.05;2.90;;;10.40;99.90;;;;;;4970589;28;20045;-49
2022/10/02 00:46:24;;;;;;;6.82;2.38;;;10.40;99.90;;;;;;4970122;28;20019;-52
2022/10/02 00:49:14;;;;;;;12.50;2.58;;;10.40;99.90;;;;;;4977343;28;20030;-49
2022/10/02 00:51:55;;;;;;;9.73;2.30;;;10.50;99.90;;;;;;4981322;28;20085;-49
2022/10/02 00:54:49;;;;;;;7.90;2.38;;;10.50;99.90;;;;;;4972881;28;20043;-50
2022/10/02 00:57:30;;;;;;;9.73;2.30;;;10.50;99.90;;;;;;4963818;28;20146;-51
2022/10/02 01:00:02;;;;;;;10.90;2.55;;;10.50;99.90;;;;;;4974910;28;20512;-49
2022/10/02 01:02:30;;;;;;;12.00;3.72;;;10.50;99.90;;;;;;4981093;28;20111;-54
2022/10/02 01:04:58;;;;;;;20.50;4.15;;;10.50;99.90;;;;;;4978470;28;20396;-49
2022/10/02 01:07:23;;;;;;;7.15;3.75;;;10.50;99.90;;;;;;4962836;28;20140;-53
2022/10/02 01:09:49;;;;;;;9.07;3.90;;;10.50;99.90;;;;;;4974498;28;20578;-52
2022/10/02 01:12:15;;;;;;;6.10;3.08;;;10.60;99.90;;;;;;4963008;28;20465;-49
2022/10/02 01:14:41;;;;;;;7.13;2.88;;;10.60;99.90;;;;;;4973612;28;20401;-51
2022/10/02 01:17:26;;;;;;;12.27;2.70;;;10.60;99.90;;;;;;4975914;28;20027;-49
2022/10/02 01:19:52;;;;;;;9.40;2.50;;;10.60;99.90;;;;;;4975151;28;20035;-51
2022/10/02 01:22:36;;;;;;;10.02;2.45;;;10.60;99.90;;;;;;4971664;28;20027;-49
2022/10/02 01:25:04;;;;;;;8.60;3.95;;;10.60;99.90;;;;;;4972136;28;20050;-49
2022/10/02 01:27:31;;;;;;;6.35;2.20;;;10.60;99.90;;;;;;4975503;28;20126;-50
2022/10/02 01:30:16;;;;;;;5.85;3.70;;;10.60;99.90;;;;;;4980069;28;20026;-50
2022/10/02 01:32:55;;;;;;;5.80;2.70;;;10.60;99.90;;;;;;4969376;28;20107;-52
2022/10/02 01:35:25;;;;;;;7.97;3.08;;;10.60;99.90;;;;;;4971151;28;20023;-53
2022/10/02 01:37:52;;;;;;;2.65;1.80;;;10.60;99.90;;;;;;4971805;28;20041;-51
2022/10/02 01:40:28;;;;;;;4.82;2.90;;;10.50;99.90;;;;;;4972352;28;20099;-50
2022/10/02 01:42:58;;;;;;;8.18;3.97;;;10.50;99.90;;;;;;5007428;23;20030;-54
2022/10/02 01:45:43;;;;;;;3.97;2.60;;;10.50;99.90;;;;;;4990287;28;20036;-54
2022/10/02 01:48:33;;;;;;;6.55;2.92;;;10.50;99.90;;;;;;4999724;28;20272;-55
2022/10/02 01:51:28;;;;;;;7.30;3.90;;;10.50;99.90;;;;;;5000869;28;20041;-54
2022/10/02 01:54:18;;;;;;;5.53;3.80;;;10.50;99.90;;;;;;4999869;28;20032;-52
2022/10/02 01:57:01;;;;;;;6.90;3.95;;;10.40;99.90;;;;;;5001374;28;20029;-54
2022/10/02 01:59:41;;;;;;;3.60;2.80;;;10.40;99.90;;;;;;4989909;28;20275;-52
2022/10/02 02:02:32;;;;;;;4.70;2.05;;;10.40;99.90;;;;;;5000812;28;20221;-55
2022/10/02 02:05:01;;;;;;;3.60;1.25;;;10.40;99.90;;;;;;5002021;28;20041;-51
2022/10/02 02:07:41;;;;;;;2.85;1.58;;;10.40;99.90;;;;;;5002155;28;20507;-55
2022/10/02 02:10:36;;;;;;;4.60;2.22;;;10.30;99.90;;;;;;4998693;28;20245;-52
2022/10/02 02:13:26;;;;;;;4.50;2.00;;;10.40;99.90;;;;;;5004375;28;20033;-52
2022/10/02 02:15:56;;;;;;;11.68;5.18;;;10.30;99.90;;;;;;4996430;28;20096;-55
2022/10/02 02:18:38;;;;;;;5.95;4.25;;;10.30;99.90;;;;;;5005883;28;20042;-52
2022/10/02 02:21:11;;;;;;;10.80;5.07;;;10.20;99.90;;;;;;4999749;28;20058;-51
2022/10/02 02:23:39;;;;;;;6.53;2.60;;;10.30;99.90;;;;;;5001719;28;20140;-52
2022/10/02 02:26:11;;;;;;;9.68;4.75;;;10.20;99.90;;;;;;4996789;28;20081;-51
2022/10/02 02:28:42;;;;;;;5.55;2.17;;;10.30;99.90;;;;;;5002231;28;20459;-54
2022/10/02 02:31:11;;;;;;;9.23;2.88;;;10.30;99.90;;;;;;4999987;28;20501;-51
2022/10/02 02:34:10;;;;;;;7.00;3.90;;;10.20;99.90;;;;;;4984346;28;20414;-53
2022/10/02 02:36:40;;;;;;;5.57;2.47;;;10.20;99.90;;;;;;4986912;28;20133;-52
2022/10/02 02:39:11;;;;;;;6.25;2.47;;;10.20;99.90;;;;;;4981926;28;20056;-51
2022/10/02 02:41:52;;;;;;;8.85;2.03;;;10.20;99.90;;;;;;5003156;28;20036;-52
2022/10/02 02:44:24;;;;;;;2.90;2.13;;;10.20;99.90;;;;;;4994701;28;20084;-51
2022/10/02 02:47:10;;;;;;;7.18;2.58;;;10.30;99.90;;;;;;5005802;28;20026;-52
2022/10/02 02:49:44;;;;;;;5.53;1.98;;;10.30;99.90;;;;;;4998639;28;20453;-52
2022/10/02 02:52:18;;;;;;;8.32;2.60;;;10.20;99.90;;;;;;5006542;28;20109;-51
2022/10/02 02:54:53;;;;;;;7.50;2.65;;;10.30;99.90;;;;;;4980646;28;20053;-52
2022/10/02 02:57:25;;;;;;;8.63;2.43;;;10.30;99.90;;;;;;4970675;28;20030;-52
2022/10/02 02:59:54;;;;;;;6.18;2.15;;;10.30;99.90;;;;;;5000070;28;20022;-52
2022/10/02 03:02:20;;;;;;;7.85;1.77;;;10.30;99.90;;;;;;4983632;28;20018;-53
2022/10/02 03:04:45;;;;;;;9.65;2.55;;;10.30;99.90;;;;;;5001155;28;20081;-52
2022/10/02 03:07:14;;;;;;;9.80;2.50;;;10.30;99.90;;;;;;5000819;28;20017;-54
2022/10/02 03:09:44;;;;;;;4.00;2.47;;;10.30;99.90;;;;;;4983980;28;20540;-53
2022/10/02 03:12:42;;;;;;;7.18;2.47;;;10.30;99.90;;;;;;4993714;28;20017;-54
2022/10/02 03:15:18;;;;;;;5.65;1.90;;;10.30;99.90;;;;;;4998497;28;20041;-54
2022/10/02 03:17:51;;;;;;;;;;;10.30;99.90;;;;;;5005617;28;20486;-51
2022/10/02 03:20:38;;;;;;;4.65;2.08;;;10.20;99.90;;;;;;4992989;28;20368;-50
2022/10/02 03:23:07;;;;;;;5.25;1.40;;;10.30;99.90;;;;;;4999881;28;20033;-52
2022/10/02 03:25:47;;;;;;;6.57;1.75;;;10.20;99.90;;;;;;5002063;28;20031;-51
2022/10/02 03:28:42;;;;;;;4.38;1.88;;;10.30;99.90;;;;;;5001465;28;20057;-53
2022/10/02 03:31:11;;;;;;;3.28;2.15;;;10.30;99.90;;;;;;4999740;28;20493;-56
2022/10/02 03:33:38;;;;;;;7.75;2.92;;;10.20;99.90;;;;;;5001630;28;20022;-51
2022/10/02 03:36:04;;;;;;;4.85;1.77;;;10.20;99.90;;;;;;5001338;28;20053;-51
2022/10/02 03:38:31;;;;;;;3.38;1.88;;;10.20;99.90;;;;;;5001333;28;20030;-51
2022/10/02 03:40:57;;;;;;;2.78;1.70;;;10.20;99.90;;;;;;4999384;28;20018;-52
2022/10/02 03:43:25;;;;;;;8.45;2.45;;;10.20;99.90;;;;;;5000433;28;20470;-53
2022/10/02 03:45:51;;;;;;;9.65;2.08;;;10.30;99.90;;;;;;5000518;28;20089;-52
2022/10/02 03:48:16;;;;;;;3.22;1.90;;;10.30;99.90;;;;;;5001216;28;20061;-55
2022/10/02 03:50:42;;;;;;;6.90;2.03;;;10.20;99.90;;;;;;5001399;28;20042;-51
2022/10/02 03:53:16;;;;;;;4.25;2.13;;;10.20;99.90;;;;;;5000625;28;20026;-53
2022/10/02 03:55:48;;;;;;;3.50;1.52;;;10.20;99.90;;;;;;5005010;28;20045;-50
2022/10/02 03:58:16;;;;;;;3.65;1.70;;;10.20;99.90;;;;;;5002635;28;20503;-50
2022/10/02 04:00:51;;;;;;;6.30;1.80;;;10.20;99.90;;;;;;4987512;28;20021;-50
2022/10/02 04:03:24;;;;;;;2.53;1.50;;;10.10;99.90;;;;;;5003012;28;20033;-53
2022/10/02 04:06:00;;;;;;;4.53;1.95;;;10.10;99.90;;;;;;4986955;28;20030;-52
2022/10/02 04:08:38;;;;;;;6.50;1.80;;;10.10;99.90;;;;;;5000830;28;20436;-53
2022/10/02 04:11:07;;;;;;;1.83;1.33;;;10.10;99.90;;;;;;4980326;28;20033;-52
2022/10/02 04:13:37;;;;;;;3.60;1.80;;;10.10;99.90;;;;;;5005904;28;20042;-51
2022/10/02 04:16:15;;;;;;;1.75;1.65;;;10.10;99.90;;;;;;4985531;28;20069;-51
2022/10/02 04:18:51;;;;;;;8.07;1.67;;;10.00;99.90;;;;;;5005526;28;20037;-51
2022/10/02 04:21:35;;;;;;;2.63;1.70;;;10.00;99.90;;;;;;4992437;28;20108;-54
2022/10/02 04:24:03;;;;;;;3.03;1.40;;;10.00;99.90;;;;;;5002584;28;20019;-51
2022/10/02 04:26:36;;;;;;;5.32;1.95;;;10.00;99.90;;;;;;5004459;28;20014;-51
2022/10/02 04:29:19;;;;;;;2.83;2.03;;;10.00;99.90;;;;;;5003334;28;20034;-53
2022/10/02 04:31:51;;;;;;;3.92;1.63;;;10.00;99.90;;;;;;5004270;28;20076;-52
2022/10/02 04:34:17;;;;;;;6.07;1.60;;;9.90;99.90;;;;;;5002676;28;20018;-52
2022/10/02 04:36:51;;;;;;;4.60;2.15;;;9.90;99.90;;;;;;5004389;28;20048;-52
2022/10/02 04:39:23;;;;;;;5.93;2.30;;;9.90;99.90;;;;;;4998176;28;20026;-52
2022/10/02 04:42:16;;;;;;;6.93;2.50;;;9.80;99.90;;;;;;5007454;28;20032;-51
2022/10/02 04:44:47;;;;;;;3.70;2.60;;;9.80;99.90;;;;;;4999779;28;20562;-51
2022/10/02 04:47:47;;;;;;;7.20;3.50;;;9.80;99.90;;;;;;5007964;28;20111;-54
2022/10/02 04:50:33;;;;;;;5.50;3.30;;;9.80;99.90;;;;;;5003977;28;20061;-51
2022/10/02 04:53:20;;;;;;;;;;;9.80;99.90;;;;;;5004006;28;20058;-52
2022/10/02 04:55:52;;;;;;;7.90;3.70;;;9.70;99.90;;;;;;5004016;28;19912;-51
2022/10/02 04:58:20;;;;;;;3.03;2.45;;;9.70;99.90;;;;;;5002316;28;20079;-53
2022/10/02 05:00:55;;;;;;;3.65;2.50;;;9.70;99.90;;;;;;5003817;28;20032;-53
2022/10/02 05:03:57;;;;;;;4.78;2.50;;;9.60;99.90;;;;;;5002721;28;20312;-51
2022/10/02 05:06:48;;;;;;;3.22;2.35;;;9.60;99.90;;;;;;4996265;28;20532;-50
2022/10/02 05:09:36;;;;;;;4.68;3.42;;;9.60;99.90;;;;;;5003564;28;20025;-53
2022/10/02 05:12:18;;;;;;;7.80;2.42;;;9.60;99.90;;;;;;4995091;28;20062;-50
2022/10/02 05:15:03;;;;;;;6.75;2.63;;;9.60;99.90;;;;;;5003354;28;20032;-51
2022/10/02 05:17:48;;;;;;;5.75;2.15;;;9.70;99.90;;;;;;5005059;28;20069;-50
2022/10/02 05:20:32;;;;;;;4.93;2.28;;;9.70;99.90;;;;;;4994867;28;20105;-52
2022/10/02 05:23:17;;;;;;;3.10;1.90;;;9.70;99.90;;;;;;5000813;28;20022;-51
2022/10/02 05:26:02;;;;;;;7.90;2.47;;;9.70;99.90;;;;;;5002393;28;20046;-51
2022/10/02 05:28:36;;;;;;;8.60;2.80;;;9.80;99.90;;;;;;4992829;28;20085;-53
2022/10/02 05:31:37;;;;;;;6.90;2.10;;;9.80;99.90;;;;;;5001965;28;20488;-54
2022/10/02 05:34:30;;;;;;;6.22;2.28;;;9.80;99.90;;;;;;5002812;28;20055;-51
2022/10/02 05:37:21;;;;;;;3.28;2.10;;;9.80;99.90;;;;;;5002320;28;20021;-51
2022/10/02 05:40:13;;;;;;;3.92;1.98;;;9.80;99.90;;;;;;4996023;28;20237;-50
2022/10/02 05:42:47;;;;;;;4.75;2.45;;;9.80;99.90;;;;;;4993256;28;20484;-51
2022/10/02 05:45:26;;;;;;;4.28;2.00;;;9.90;99.90;;;;;;5002798;28;20029;-50
2022/10/02 05:47:58;;;;;;;7.20;2.55;;;9.90;99.90;;;;;;5001616;28;20026;-51
2022/10/02 05:50:32;;;;;;;6.15;2.13;;;9.90;99.90;;;;;;5002988;28;20025;-50
2022/10/02 05:53:17;;;;;;;3.92;1.65;;;9.90;99.90;;;;;;5002327;28;20054;-50
2022/10/02 05:55:59;;;;;;;8.20;2.47;;;9.90;99.90;;;;;;5003051;28;20026;-51
2022/10/02 05:58:52;;;;;;;3.85;1.77;;;9.90;99.90;;;;;;4997845;28;20038;-52
2022/10/02 06:01:40;;;;;;;5.50;2.63;;;9.90;99.90;;;;;;4993505;28;20105;-54
2022/10/02 06:04:15;;;;;;;6.55;2.08;;;9.90;99.90;;;;;;5000914;28;20093;-52
2022/10/02 06:06:50;;;;;;;4.15;2.08;;;10.00;99.90;;;;;;5002739;28;20174;-51
2022/10/02 06:09:28;;;;;;;7.68;3.00;;;10.00;99.90;;;;;;4989378;28;20022;-51
2022/10/02 06:11:58;;;;;;;7.40;2.60;;;10.10;99.90;;;;;;4994515;28;20388;-51
2022/10/02 06:14:31;;;;;;;6.55;2.53;;;10.10;99.90;;;;;;4984745;28;20113;-53
2022/10/02 06:17:02;;;;;;;7.70;2.45;;;10.20;99.90;;;;;;5001372;28;20507;-50
2022/10/02 06:19:31;;;;;;;7.63;3.10;;;10.30;99.90;;;;;;5002699;28;20037;-50
2022/10/02 06:22:12;;;;;;;6.05;2.22;;;10.30;99.90;;;;;;5000750;28;20037;-51
2022/10/02 06:24:56;;;;;;;6.88;2.50;;;10.30;99.90;;;;;;5003840;28;20065;-51
2022/10/02 06:27:47;;;;;;;4.97;2.15;;;10.40;99.90;;;;;;4996053;28;20019;-52
2022/10/02 06:30:17;;;;;;;7.18;2.00;;;10.30;99.90;;;;;;5005834;28;20033;-50
2022/10/02 06:32:58;;;;;;;7.72;2.75;;;10.30;99.90;;;;;;4998627;28;20034;-50
2022/10/02 06:35:35;;;;;;;5.93;2.22;;;10.40;99.90;;;;;;4992310;28;20018;-51
2022/10/02 06:38:18;;;;;;;3.05;2.45;;;10.40;99.90;;;;;;5000212;28;20034;-51
2022/10/02 06:40:51;;;;;;;4.93;2.38;;;10.40;99.90;;;;;;5000991;28;20025;-53
2022/10/02 06:43:46;;;;;;;8.70;3.08;;;10.50;99.90;;;;;;4990862;28;20061;-50
2022/10/02 06:46:32;;;;;;;11.35;2.63;;;10.50;99.90;;;;;;5000591;28;20014;-51
2022/10/02 06:49:08;;;;;;;10.57;3.22;;;10.60;99.90;;;;;;5000459;28;20045;-49
2022/10/02 06:52:05;;;;;;;5.10;2.67;;;10.60;99.90;;;;;;4981622;28;20026;-50
2022/10/02 06:54:40;;;;;;;;;;;10.60;99.90;;;;;;4995413;28;20538;-50
2022/10/02 06:57:27;;;;;;;4.70;2.22;;;10.60;99.90;;;;;;5000630;28;19913;-50
2022/10/02 07:00:16;;;;;;;5.80;2.78;;;10.60;99.90;;;;;;5000760;28;20015;-54
2022/10/02 07:03:02;;;;;;;11.00;2.42;;;10.60;99.90;;;;;;5000803;28;20025;-52
2022/10/02 07:05:36;;;;;;;5.53;2.63;;;10.60;99.90;;;;;;5000433;28;20037;-50
2022/10/02 07:08:38;;;;;;;9.80;2.72;;;10.60;99.90;;;;;;4983644;28;20033;-51
2022/10/02 07:11:45;;;;;;;8.07;2.42;;;10.60;99.90;;;;;;4992477;28;20158;-50
2022/10/02 07:14:20;;;;;;;8.25;2.28;;;10.60;99.90;;;;;;4959758;28;20069;-51
2022/10/02 07:17:20;;;;;;;4.13;2.28;;;10.70;99.90;;;;;;5001226;28;20029;-53
2022/10/02 07:20:04;;;;;;;12.73;2.75;;;10.60;99.90;;;;;;4958082;28;20081;-52
2022/10/02 07:22:49;;;;;;;9.90;2.85;;;10.70;99.90;;;;;;4996918;28;20025;-51
2022/10/02 07:25:29;;;;;;;8.88;2.45;;;10.80;99.90;;;;;;4992078;28;20018;-50
2022/10/02 07:28:00;;;;;;;6.90;2.10;;;10.90;99.90;;;;;;4996603;28;20456;-50
2022/10/02 07:30:36;;;;;;;10.23;2.70;;;10.90;99.90;;;;;;5007255;28;20030;-51
2022/10/02 07:33:15;;;;;;;;;;;11.00;99.90;;;;;;5004262;28;20196;-52
2022/10/02 07:35:56;;;;;;;5.60;2.63;;;11.00;99.90;;;;;;5006438;28;19905;-53
2022/10/02 07:38:22;;;;;;;8.45;2.25;;;11.00;99.90;;;;;;4994536;28;20087;-52
2022/10/02 07:41:08;;;;;;;4.13;1.98;;;11.10;99.90;;;;;;5003832;28;20407;-53
2022/10/02 07:44:06;;;;;;;3.83;2.15;;;11.10;99.90;;;;;;5019437;23;20440;-51
2022/10/02 07:47:09;;;;;;;6.00;2.00;;;11.20;99.90;;;;;;4949475;28;20529;-53
2022/10/02 07:49:54;;;;;;;5.00;1.83;;;11.20;99.90;;;;;;4977292;28;20088;-49
2022/10/02 07:52:35;;;;;;;4.82;2.40;;;11.20;99.90;;;;;;4962673;28;20023;-49
2022/10/02 07:55:13;;;;;;;5.10;1.98;;;11.20;99.90;;;;;;4970178;28;20141;-49
2022/10/02 07:58:04;;;;;;;7.78;2.05;;;11.20;99.90;;;;;;4963082;28;20047;-52
2022/10/02 08:00:58;;;;;;;4.53;2.22;;;11.30;99.90;;;;;;4962681;28;20030;-51
2022/10/02 08:03:34;;;;;;;8.52;2.47;;;11.40;99.90;;;;;;4947767;28;20023;-52
2022/10/02 08:06:01;;;;;;;6.28;2.17;;;11.50;99.90;;;;;;4949971;28;20494;-49
2022/10/02 08:08:58;;;;;;;8.30;2.00;;;11.60;99.90;;;;;;4952964;28;20054;-52
2022/10/02 08:11:52;;;;;;;5.60;2.22;;;11.60;99.90;;;;;;4966613;28;20026;-49
2022/10/02 08:14:39;;;;;;;5.38;2.03;;;11.60;99.90;;;;;;4939761;28;20031;-50
2022/10/02 08:17:33;;;;;;;3.72;1.58;;;11.50;99.90;;;;;;4961950;28;20087;-53
2022/10/02 08:20:21;;;;;;;4.88;1.95;;;11.60;99.90;;;;;;4963262;28;20023;-52
2022/10/02 08:23:00;;;;;;;2.72;1.40;;;11.50;99.90;;;;;;4968358;28;20031;-50
2022/10/02 08:25:42;;;;;;;7.53;2.55;;;11.50;99.90;;;;;;4960661;28;20027;-51
2022/10/02 08:28:24;;;;;;;3.78;1.48;;;11.40;99.90;;;;;;4962951;28;20034;-49
2022/10/02 08:30:50;;;;;;;5.30;1.70;;;11.40;99.90;;;;;;4962413;28;20034;-48
2022/10/02 08:33:21;;;;;;;5.05;2.38;;;11.40;99.90;;;;;;4962312;28;20027;-48
2022/10/02 08:36:25;;;;;;;2.65;1.33;;;11.40;99.90;;;;;;4961538;28;20027;-48
2022/10/02 08:39:06;;;;;;;8.32;1.70;;;11.30;99.90;;;;;;4944614;28;20035;-49
2022/10/02 08:41:38;;;;;;;3.45;1.30;;;11.30;99.90;;;;;;4961593;28;20106;-51
2022/10/02 08:44:38;;;;;;;2.13;1.48;;;11.40;99.90;;;;;;4963145;28;20401;-51
2022/10/02 08:47:42;;;;;;;5.07;1.63;;;11.60;99.90;;;;;;4946168;28;20057;-52
2022/10/02 08:50:28;;;;;;;4.30;1.60;;;11.80;99.90;;;;;;4969946;28;20050;-49
2022/10/02 08:53:00;;;;;;;;;;;11.90;99.90;;;;;;4960607;28;20416;-51
2022/10/02 08:55:29;;;;;;;2.13;1.35;;;11.90;99.90;;;;;;4961708;28;19914;-52
2022/10/02 08:58:13;;;;;;;3.42;1.40;;;11.80;99.90;;;;;;4962791;28;20063;-50
2022/10/02 09:01:18;;;;;;;2.33;1.02;;;11.90;99.90;;;;;;4961487;28;20031;-49
2022/10/02 09:04:04;;;;;;;3.53;1.52;;;11.90;99.90;;;;;;4960831;28;20097;-49
2022/10/02 09:06:57;;;;;;;4.85;1.75;;;12.00;99.90;;;;;;4961525;28;20018;-51
2022/10/02 09:09:58;;;;;;;6.40;1.60;;;12.10;99.90;;;;;;4965828;28;20022;-49
2022/10/02 09:12:45;;;;;;;6.13;1.90;;;12.20;99.90;;;;;;4967427;28;20078;-51
2022/10/02 09:15:15;;;;;;;5.43;1.38;;;12.20;99.90;;;;;;4964098;28;20046;-50
2022/10/02 09:17:45;;;;;;;3.88;2.13;;;12.30;99.90;;;;;;4957544;28;20031;-50
2022/10/02 09:20:35;;;;;;;6.47;2.17;;;12.50;99.90;;;;;;4964061;28;20492;-52
2022/10/02 09:23:31;;;;;;;5.38;1.77;;;12.70;99.90;;;;;;4969389;28;20072;-49
2022/10/02 09:26:38;;;;;;;8.55;2.60;;;12.80;99.90;;;;;;4968872;28;20046;-51
2022/10/02 09:29:22;;;;;;;6.75;2.40;;;12.80;99.90;;;;;;4902700;29;20028;-52
2022/10/02 09:32:06;;;;;;;7.35;2.65;;;12.80;99.90;;;;;;4903965;29;20036;-51
2022/10/02 09:34:46;;;;;;;5.72;2.17;;;12.80;99.90;;;;;;4943229;28;20082;-50
2022/10/02 09:37:49;;;;;;;5.32;2.53;;;12.80;99.90;;;;;;4963764;28;20023;-50
2022/10/02 09:40:45;;;;;;;4.25;2.30;;;12.90;99.90;;;;;;4960407;28;20030;-49
2022/10/02 09:43:26;;;;;;;8.23;2.92;;;13.10;99.90;;;;;;4968798;28;20031;-50
2022/10/02 09:46:00;;;;;;;8.60;3.15;;;13.20;99.90;;;;;;4962239;28;20031;-52
2022/10/02 09:48:58;;;;;;;6.82;2.58;;;13.30;99.90;;;;;;4950155;28;20090;-50
2022/10/02 09:51:46;;;;;;;10.23;2.65;;;13.30;99.90;;;;;;4956995;28;20087;-48
2022/10/02 09:54:59;;;;;;;7.60;2.08;;;13.40;99.90;;;;;;4963475;28;20037;-50
2022/10/02 09:58:28;;;;;;;9.18;2.42;;;13.50;99.90;;;;;;4960344;28;20058;-51
2022/10/02 10:01:11;;;;;;;6.82;2.47;;;13.50;99.90;;;;;;4933033;28;20122;-50
2022/10/02 10:03:47;;;;;;;7.45;2.90;;;13.50;99.90;;;;;;4959935;28;20027;-49
2022/10/02 10:06:16;;;;;;;6.53;1.95;;;13.60;99.90;;;;;;4962866;28;20077;-51
2022/10/02 10:08:53;;;;;;;4.50;1.65;;;13.60;99.90;;;;;;4964233;28;20022;-52
2022/10/02 10:11:56;;;;;;;8.32;2.45;;;13.70;99.90;;;;;;4971038;28;20034;-48
2022/10/02 10:14:46;;;;;;;5.72;2.05;;;13.70;99.90;;;;;;4966790;28;20093;-53
2022/10/02 10:17:47;;;;;;;8.07;2.28;;;13.70;99.90;;;;;;4957924;28;20030;-53
2022/10/02 10:20:49;;;;;;;9.68;2.33;;;13.70;99.90;;;;;;4961838;28;20449;-54
2022/10/02 10:23:27;;;;;;;4.47;1.65;;;13.80;99.90;;;;;;4950369;28;20473;-51
2022/10/02 10:26:20;;;;;;;5.18;1.80;;;13.80;99.90;;;;;;4961990;28;20477;-50
2022/10/02 10:29:08;;;;;;;3.55;1.63;;;13.90;99.90;;;;;;4962420;28;20027;-50
2022/10/02 10:32:05;;;;;;;10.32;1.83;;;14.00;99.90;;;;;;4958961;28;20035;-49
2022/10/02 10:34:57;;;;;;;4.95;1.70;;;14.10;99.90;;;;;;4957587;28;20031;-48
2022/10/02 10:40:53;;;;;;;6.25;1.95;;;14.00;99.90;;;;;;4965548;28;20034;-51
2022/10/02 10:43:46;;;;;;;5.68;1.48;;;14.00;99.90;;;;;;4959324;28;20034;-50
2022/10/02 10:46:46;;;;;;;5.93;1.25;;;14.10;99.90;;;;;;4958941;28;20098;-51
2022/10/02 10:49:42;;;;;;;8.43;2.33;;;14.10;99.90;;;;;;4962292;28;20401;-50
2022/10/02 10:52:45;;;;;;;5.80;1.80;;;14.10;99.90;;;;;;4942439;28;20090;-52
2022/10/02 10:55:38;;;;;;;7.13;1.67;;;14.00;99.90;;;;;;4964019;28;20267;-49
2022/10/02 10:58:31;;;;;;;6.15;1.75;;;14.00;99.90;;;;;;4960738;28;20041;-54
2022/10/02 11:01:15;;;;;;;8.85;1.92;;;14.00;99.90;;;;;;4960505;28;20040;-49
2022/10/02 11:04:18;;;;;;;6.30;1.70;;;13.90;99.90;;;;;;4958716;28;20027;-50
2022/10/02 11:06:52;;;;;;;8.02;2.17;;;13.80;99.90;;;;;;4961256;28;20431;-52
2022/10/02 11:09:43;;;;;;;8.95;1.83;;;13.70;99.90;;;;;;4963189;28;20496;-50
2022/10/02 11:13:01;;;;;;;8.43;1.98;;;13.70;99.90;;;;;;4970129;28;20031;-49
2022/10/02 11:15:58;;;;;;;10.20;2.30;;;13.60;99.90;;;;;;4926245;28;20090;-52
2022/10/02 11:18:34;;;;;;;9.05;2.03;;;13.70;99.90;;;;;;4955688;28;20015;-53
2022/10/02 11:21:14;;;;;;;10.45;1.70;;;13.80;99.90;;;;;;4966734;28;20066;-53
2022/10/02 11:23:57;;;;;;;11.65;2.45;;;13.80;99.90;;;;;;4959151;28;20031;-49
2022/10/02 11:26:45;;;;;;;12.82;3.13;;;13.80;99.90;;;;;;4944668;28;20441;-51
2022/10/02 11:29:33;;;;;;;14.75;2.92;;;13.80;99.90;;;;;;4959270;28;20027;-51
2022/10/02 11:32:30;;;;;;;17.85;2.75;;;13.60;99.90;;;;;;4960111;28;20394;-51
2022/10/02 11:35:15;;;;;;;6.63;2.25;;;13.60;99.90;;;;;;4958888;28;20032;-48
2022/10/02 11:38:03;;;;;;;6.18;1.30;;;13.60;99.90;;;;;;4962234;28;20019;-50
2022/10/02 11:40:45;;;;;;;7.82;2.15;;;13.60;99.90;;;;;;4941754;28;20450;-49
2022/10/02 11:43:23;;;;;;;7.78;2.72;;;13.70;99.90;;;;;;4966632;28;20050;-49
2022/10/02 11:46:10;;;;;;;8.30;2.67;;;13.80;99.90;;;;;;4959557;28;20031;-51
2022/10/02 11:48:57;;;;;;;10.77;2.42;;;13.90;99.90;;;;;;4959056;28;20035;-49
2022/10/02 11:51:31;;;;;;;7.15;2.75;;;14.10;99.90;;;;;;4956485;28;20070;-49
2022/10/02 11:54:02;;;;;;;11.50;2.10;;;14.10;99.90;;;;;;4959676;28;20118;-49
2022/10/02 11:56:46;;;;;;;12.07;2.25;;;14.10;99.90;;;;;;4960520;28;20501;-49
2022/10/02 11:59:41;;;;;;;5.82;2.30;;;14.20;99.90;;;;;;4955770;28;20026;-49
2022/10/02 12:02:17;;;;;;;13.05;2.10;;;14.30;99.90;;;;;;4927117;28;20093;-48
2022/10/02 12:05:04;;;;;;;8.15;2.63;;;14.40;99.90;;;;;;4963591;28;20034;-49
2022/10/02 12:07:45;;;;;;;7.05;2.35;;;14.50;99.90;;;;;;4958399;28;20019;-50
2022/10/02 12:10:43;;;;;;;10.05;1.83;;;14.50;99.90;;;;;;4969619;28;20065;-53
2022/10/02 12:13:14;;;;;;;6.60;1.60;;;14.40;99.90;;;;;;4969640;28;20046;-52
2022/10/02 12:15:55;;;;;;;12.10;3.33;;;14.40;99.90;;;;;;4963256;28;20034;-53
2022/10/02 12:18:38;;;;;;;15.77;3.08;;;14.30;99.90;;;;;;4958581;28;20454;-52
2022/10/02 12:27:57;;;;;;;9.10;2.97;;;14.10;99.90;;;;;;4962071;28;20060;-53
2022/10/02 12:30:41;;;;;;;8.73;2.20;;;14.00;99.90;;;;;;4959504;28;20030;-49
2022/10/02 12:33:14;;;;;;;10.52;2.20;;;14.10;99.90;;;;;;4967303;28;20038;-52
2022/10/02 12:35:54;;;;;;;12.45;2.50;;;14.10;99.90;;;;;;4968429;28;20093;-51
2022/10/02 12:38:49;;;;;;;12.65;2.85;;;14.20;99.90;;;;;;4961480;28;20050;-52
2022/10/02 12:41:16;;;;;;;12.90;2.70;;;14.20;99.90;;;;;;4954876;28;20587;-51
2022/10/02 12:44:09;;;;;;;12.18;2.67;;;14.20;99.90;;;;;;4961982;28;20490;-49
2022/10/02 12:46:59;;;;;;;11.73;3.35;;;14.10;99.90;;;;;;4963292;28;20046;-51
2022/10/02 12:49:34;;;;;;;11.20;2.45;;;14.10;99.90;;;;;;4967945;28;20580;-52
2022/10/02 12:52:40;;;;;;;9.52;2.75;;;14.00;99.90;;;;;;4956729;28;20409;-49
2022/10/02 12:55:34;;;;;;;12.32;3.47;;;14.00;99.90;;;;;;4966134;28;20048;-48
2022/10/02 12:58:21;;;;;;;9.40;2.40;;;14.00;99.90;;;;;;4962819;28;20505;-50
2022/10/02 13:01:29;;;;;;;9.93;2.55;;;14.10;99.90;;;;;;4961917;28;20103;-50
2022/10/02 13:04:21;;;;;;;9.60;1.92;;;14.10;99.90;;;;;;4961771;28;20082;-52
2022/10/02 13:07:12;;;;;;;14.65;2.55;;;14.20;99.90;;;;;;4964053;28;20085;-51
2022/10/02 13:10:01;;;;;;;9.50;2.22;;;14.30;99.90;;;;;;4949921;28;20039;-49
2022/10/02 13:12:31;;;;;;;8.85;2.10;;;14.30;99.90;;;;;;4965539;28;20417;-49
2022/10/02 13:15:36;;;;;;;13.80;2.90;;;14.50;99.90;;;;;;4970514;28;20504;-49
2022/10/02 13:18:12;;;;;;;8.15;1.50;;;14.60;99.90;;;;;;4923470;28;20194;-50
2022/10/02 13:21:02;;;;;;;9.20;2.47;;;14.70;99.90;;;;;;4964564;28;20362;-50
2022/10/02 13:23:30;;;;;;;10.63;1.77;;;14.80;99.90;;;;;;4947419;28;20024;-49
2022/10/02 13:26:15;;;;;;;14.02;3.13;;;14.90;99.90;;;;;;4961577;28;20100;-51
2022/10/02 13:28:57;;;;;;;13.38;2.63;;;15.00;99.90;;;;;;4959447;28;20474;-49
2022/10/02 13:31:37;;;;;;;10.05;2.20;;;15.00;99.90;;;;;;4947823;28;20098;-50
2022/10/02 13:34:27;;;;;;;8.38;2.05;;;15.10;99.90;;;;;;4959784;28;20454;-50
2022/10/02 13:37:08;;;;;;;7.50;2.38;;;15.20;99.90;;;;;;4961240;28;20027;-51
2022/10/02 13:39:52;;;;;;;9.02;2.03;;;15.20;99.90;;;;;;4963920;28;20038;-49
2022/10/02 13:42:54;;;;;;;8.30;2.00;;;15.30;99.90;;;;;;4958359;28;20015;-49
2022/10/02 13:45:37;;;;;;;12.07;1.90;;;15.20;99.90;;;;;;5002094;23;20424;-52
2022/10/02 13:48:09;;;;;;;6.97;1.90;;;15.20;99.90;;;;;;4987927;28;20032;-54
2022/10/02 13:50:59;;;;;;;12.30;2.25;;;15.30;99.90;;;;;;4992350;28;20030;-51
2022/10/02 13:54:08;;;;;;;6.40;1.70;;;15.30;99.90;;;;;;4986665;28;20110;-52
2022/10/02 13:56:44;;;;;;;8.50;2.20;;;15.30;99.90;;;;;;4939991;29;20035;-51
2022/10/02 13:59:19;;;;;;;;;;;15.40;99.90;;;;;;4949604;28;20129;-50
2022/10/02 14:02:11;;;;;;;11.88;2.85;;;15.40;99.90;;;;;;4979447;28;20387;-52
2022/10/02 14:04:55;;;;;;;9.18;1.75;;;15.50;99.90;;;;;;4965050;28;20607;-50
2022/10/02 14:07:35;;;;;;;6.72;2.00;;;15.60;99.90;;;;;;4969990;28;20153;-52
2022/10/02 14:10:22;;;;;;;14.23;2.15;;;15.60;99.90;;;;;;4978333;28;20034;-51
2022/10/02 14:13:15;;;;;;;9.98;1.80;;;15.60;99.90;;;;;;4976020;28;20062;-54
2022/10/02 14:15:53;;;;;;;12.15;2.15;;;15.60;99.90;;;;;;4975804;28;20030;-50